Time;durP1;ratioP1;P1;durP2;ratioP2;P2;SDS_P1;SDS_P2;PMS_P1;PMS_P2;Temp;Humidity;BMP_temperature;BMP_pressure;BME280_temperature;BME280_humidity;BME280_pressure;Samples;Min_cycle;Max_cycle;Signal;HPM_P1;HPM_P2
2023/06/07 00:00:41;;;;;;;1.57;1.50;;;15.10;52.10;14.00;96140.00;;;;4994815;28;20225;-56
2023/06/07 00:03:09;;;;;;;0.93;0.93;;;14.90;53.10;14.10;96135.00;;;;4993066;28;20293;-56
2023/06/07 00:05:37;;;;;;;1.03;1.03;;;14.90;53.50;14.10;96135.00;;;;4994201;28;20297;-55
2023/06/07 00:08:05;;;;;;;0.93;0.93;;;14.70;53.70;14.10;96140.00;;;;4994345;28;20191;-57
2023/06/07 00:10:33;;;;;;;0.80;0.80;;;14.70;53.50;14.00;96138.00;;;;4994559;28;20608;-60
2023/06/07 00:13:00;;;;;;;0.70;0.70;;;14.70;54.40;14.20;96148.00;;;;4994792;28;20197;-56
2023/06/07 00:15:28;;;;;;;1.07;1.07;;;14.80;53.80;14.10;96140.00;;;;4994210;28;20214;-55
2023/06/07 00:17:59;;;;;;;1.37;1.27;;;14.80;53.90;14.00;96148.00;;;;4994178;28;20198;-56
2023/06/07 00:20:26;;;;;;;1.10;1.10;;;14.70;54.10;13.90;96139.00;;;;4994393;28;20290;-56
2023/06/07 00:22:55;;;;;;;0.87;0.87;;;14.70;54.10;13.80;96135.00;;;;4994133;28;20194;-55
2023/06/07 00:25:23;;;;;;;1.17;1.17;;;14.60;54.10;13.90;96142.00;;;;4993946;28;20249;-56
2023/06/07 00:27:50;;;;;;;2.67;1.50;;;14.60;54.10;13.90;96139.00;;;;4994038;28;20194;-57
2023/06/07 00:30:17;;;;;;;1.30;1.30;;;14.50;54.50;13.80;96136.00;;;;4994259;28;20194;-56
2023/06/07 00:32:46;;;;;;;2.27;1.13;;;14.40;54.70;13.90;96136.00;;;;4993968;28;20225;-56
2023/06/07 00:35:13;;;;;;;2.50;1.40;;;14.50;54.80;13.80;96128.00;;;;4994184;28;20213;-55
2023/06/07 00:37:41;;;;;;;1.77;1.67;;;14.40;55.00;14.00;96127.00;;;;4993914;28;20253;-56
2023/06/07 00:40:09;;;;;;;1.30;1.23;;;14.50;54.90;14.00;96125.00;;;;4993848;28;20218;-56
2023/06/07 00:42:37;;;;;;;1.30;1.27;;;14.60;55.30;14.00;96130.00;;;;4993841;28;20252;-56
2023/06/07 00:45:04;;;;;;;1.00;1.00;;;14.60;54.30;13.80;96127.00;;;;4993783;28;20233;-56
2023/06/07 00:47:32;;;;;;;1.60;1.27;;;14.50;54.20;13.60;96128.00;;;;4993818;28;20669;-57
2023/06/07 00:50:01;;;;;;;1.03;1.03;;;14.40;54.00;13.50;96127.00;;;;4992514;28;20699;-57
2023/06/07 00:52:28;;;;;;;0.80;0.80;;;14.40;54.10;13.50;96124.00;;;;4992541;28;20654;-57
2023/06/07 00:54:58;;;;;;;1.27;1.27;;;14.30;54.70;13.50;96124.00;;;;4993880;28;20210;-56
2023/06/07 00:57:25;;;;;;;0.87;0.87;;;14.20;55.00;13.50;96128.00;;;;4994221;28;20201;-57
2023/06/07 00:59:53;;;;;;;0.77;0.77;;;14.30;55.00;13.50;96136.00;;;;4993653;28;20214;-56
2023/06/07 01:02:20;;;;;;;1.03;1.03;;;14.20;55.10;13.30;96125.00;;;;4993926;28;20564;-56
2023/06/07 01:04:49;;;;;;;0.80;0.80;;;14.00;54.70;13.40;96136.00;;;;4993548;28;20214;-55
2023/06/07 01:07:24;;;;;;;1.10;1.10;;;;;13.50;96122.00;;;;4993713;28;20194;-55
2023/06/07 01:09:52;;;;;;;0.93;0.93;;;14.10;55.00;13.50;96116.00;;;;4994212;28;20182;-56
2023/06/07 01:12:20;;;;;;;0.80;0.80;;;14.10;55.50;13.40;96116.00;;;;4993902;28;20273;-55
2023/06/07 01:14:49;;;;;;;1.23;1.17;;;14.10;55.20;13.40;96117.00;;;;4993683;28;20218;-55
2023/06/07 01:17:24;;;;;;;0.50;0.50;;;14.00;55.70;13.40;96114.00;;;;4995149;28;20196;-57
2023/06/07 01:19:53;;;;;;;1.83;1.30;;;14.10;55.50;13.40;96122.00;;;;4997835;28;20644;-56
2023/06/07 01:22:27;;;;;;;0.70;0.70;;;14.00;55.60;13.20;96120.00;;;;4997277;28;20201;-56
2023/06/07 01:24:56;;;;;;;1.80;1.70;;;13.90;55.90;13.20;96123.00;;;;4997191;28;20216;-55
2023/06/07 01:27:27;;;;;;;1.47;1.37;;;13.90;55.90;13.10;96119.00;;;;4997488;28;20194;-55
2023/06/07 01:29:56;;;;;;;1.30;1.20;;;13.90;56.00;13.10;96110.00;;;;4997389;28;20248;-55
2023/06/07 01:32:24;;;;;;;2.33;1.30;;;13.80;56.00;13.10;96116.00;;;;4997122;28;20194;-56
2023/06/07 01:34:52;;;;;;;0.90;0.90;;;13.80;56.70;13.00;96105.00;;;;4997066;28;20304;-56
2023/06/07 01:37:21;;;;;;;1.00;1.00;;;13.80;56.10;13.10;96117.00;;;;4997567;28;20191;-56
2023/06/07 01:39:51;;;;;;;1.47;1.00;;;13.80;56.30;13.00;96106.00;;;;4997013;28;20224;-56
2023/06/07 01:42:20;;;;;;;0.90;0.90;;;13.70;56.40;13.00;96115.00;;;;4997534;28;20193;-56
2023/06/07 01:44:49;;;;;;;0.97;0.97;;;13.70;56.60;13.00;96106.00;;;;4996901;28;20221;-56
2023/06/07 01:47:17;;;;;;;1.00;1.00;;;13.70;56.30;13.10;96101.00;;;;4997015;28;20196;-56
2023/06/07 01:49:45;;;;;;;1.17;1.17;;;13.70;56.30;13.00;96105.00;;;;4997050;28;20198;-57
2023/06/07 01:52:12;;;;;;;1.00;1.00;;;13.60;56.30;13.00;96102.00;;;;4997281;28;20232;-56
2023/06/07 01:54:41;;;;;;;1.80;1.27;;;13.60;56.30;13.00;96107.00;;;;4996910;28;20246;-56
2023/06/07 01:57:21;;;;;;;1.33;1.00;;;13.70;56.20;13.10;96101.00;;;;4996920;28;20201;-56
2023/06/07 02:00:09;;;;;;;1.33;1.30;;;13.60;56.40;12.90;96098.00;;;;4996714;28;20202;-56
2023/06/07 02:02:51;;;;;;;0.73;0.73;;;13.60;56.10;13.00;96091.00;;;;4996562;28;20186;-56
2023/06/07 02:05:26;;;;;;;1.57;1.43;;;13.60;56.10;12.90;96093.00;;;;4996793;28;20654;-57
2023/06/07 02:07:55;;;;;;;1.00;1.00;;;13.60;56.20;12.90;96082.00;;;;4996832;28;20166;-59
2023/06/07 02:10:26;;;;;;;0.87;0.87;;;13.50;56.40;12.80;96087.00;;;;4996505;28;20202;-57
2023/06/07 02:12:56;;;;;;;1.03;0.93;;;13.50;55.90;12.70;96076.00;;;;4996477;28;20187;-57
2023/06/07 02:15:23;;;;;;;1.23;1.23;;;13.40;56.20;12.60;96085.00;;;;4996614;28;20202;-57
2023/06/07 02:17:57;;;;;;;1.60;1.50;;;13.40;56.30;12.60;96086.00;;;;4996292;28;20260;-56
2023/06/07 02:20:25;;;;;;;1.03;1.03;;;13.30;59.10;12.50;96084.00;;;;4996491;28;20206;-56
2023/06/07 02:22:53;;;;;;;1.00;1.00;;;13.20;57.30;12.50;96087.00;;;;4996250;28;20194;-56
2023/06/07 02:25:20;;;;;;;0.67;0.67;;;13.20;57.30;12.50;96085.00;;;;4996239;28;20226;-55
2023/06/07 02:27:47;;;;;;;1.37;1.13;;;13.10;57.40;12.50;96086.00;;;;4996522;28;20198;-55
2023/06/07 02:30:16;;;;;;;1.23;1.23;;;13.10;57.80;12.50;96084.00;;;;4996095;28;20197;-56
2023/06/07 02:32:45;;;;;;;0.87;0.87;;;13.20;57.80;12.40;96091.00;;;;4996302;28;20261;-56
2023/06/07 02:35:12;;;;;;;1.33;1.23;;;13.20;57.20;12.40;96097.00;;;;4996526;28;20601;-56
2023/06/07 02:37:40;;;;;;;1.50;1.40;;;13.10;56.90;12.30;96086.00;;;;4996725;28;20194;-55
2023/06/07 02:40:09;;;;;;;1.10;1.10;;;12.90;57.00;12.10;96091.00;;;;4995909;28;20266;-56
2023/06/07 02:42:36;;;;;;;1.27;1.27;;;12.80;58.00;12.10;96086.00;;;;4995927;28;20291;-56
2023/06/07 02:45:05;;;;;;;0.97;0.97;;;12.80;58.30;12.10;96087.00;;;;4996045;28;20217;-56
2023/06/07 02:47:33;;;;;;;0.97;0.97;;;12.80;58.20;12.00;96092.00;;;;4995763;28;20542;-56
2023/06/07 02:50:00;;;;;;;1.00;1.00;;;12.80;58.20;12.00;96085.00;;;;4995714;28;20198;-57
2023/06/07 02:52:27;;;;;;;1.13;1.13;;;12.80;58.10;12.00;96092.00;;;;4995654;28;20298;-56
2023/06/07 02:54:55;;;;;;;0.77;0.77;;;12.80;58.10;12.10;96092.00;;;;4995708;28;20601;-55
2023/06/07 02:57:22;;;;;;;1.00;1.00;;;12.80;58.30;12.20;96095.00;;;;4995579;28;20194;-56
2023/06/07 02:59:49;;;;;;;1.60;1.50;;;12.80;58.10;12.20;96095.00;;;;4995553;28;20186;-56
2023/06/07 03:02:16;;;;;;;0.80;0.80;;;12.90;58.00;12.30;96100.00;;;;4995387;28;20218;-56
2023/06/07 03:04:44;;;;;;;1.40;1.30;;;12.90;57.60;12.10;96091.00;;;;4995642;28;20311;-55
2023/06/07 03:07:11;;;;;;;1.20;1.10;;;12.80;57.80;12.00;96095.00;;;;5010383;28;20198;-56
2023/06/07 03:09:39;;;;;;;1.00;1.00;;;12.70;58.40;12.00;96094.00;;;;4995598;28;20527;-56
2023/06/07 03:12:07;;;;;;;1.23;1.23;;;12.70;58.40;12.00;96102.00;;;;4995198;28;20194;-57
2023/06/07 03:14:34;;;;;;;1.17;1.17;;;12.70;58.50;12.00;96097.00;;;;4995108;28;20620;-55
2023/06/07 03:17:02;;;;;;;5.03;1.30;;;12.70;58.90;11.80;96094.00;;;;4995435;28;20562;-55
2023/06/07 03:19:30;;;;;;;0.73;0.73;;;12.50;59.00;11.80;96104.00;;;;4995430;28;20257;-56
2023/06/07 03:21:58;;;;;;;1.03;1.00;;;12.60;58.90;11.80;96096.00;;;;4995253;28;20277;-56
2023/06/07 03:24:28;;;;;;;1.80;1.70;;;12.60;59.00;11.80;96104.00;;;;4995018;28;20222;-56
2023/06/07 03:26:57;;;;;;;0.80;0.80;;;12.60;59.20;11.90;96106.00;;;;4995243;28;20229;-56
2023/06/07 03:29:24;;;;;;;0.97;0.97;;;12.60;59.10;11.90;96095.00;;;;4995024;28;20195;-57
2023/06/07 03:31:51;;;;;;;1.60;1.50;;;12.60;59.40;11.80;96097.00;;;;4995005;28;20207;-57
2023/06/07 03:34:18;;;;;;;0.90;0.90;;;12.50;59.50;11.80;96095.00;;;;4994788;28;20209;-55
2023/06/07 03:36:46;;;;;;;0.83;0.83;;;12.50;59.40;11.90;96092.00;;;;4995115;28;20241;-55
2023/06/07 03:39:14;;;;;;;1.53;1.43;;;12.60;59.50;11.80;96094.00;;;;4994594;28;20281;-55
2023/06/07 03:41:41;;;;;;;1.53;1.43;;;12.50;59.40;11.90;96090.00;;;;4994841;28;20233;-56
2023/06/07 03:44:08;;;;;;;0.77;0.77;;;12.60;59.40;12.00;96085.00;;;;4994803;28;20594;-56
2023/06/07 03:46:36;;;;;;;0.90;0.90;;;;;12.00;96102.00;;;;4994493;28;20273;-56
2023/06/07 03:49:03;;;;;;;1.00;1.00;;;12.60;58.40;12.00;96096.00;;;;4994890;28;20277;-56
2023/06/07 03:51:32;;;;;;;6.67;1.47;;;12.70;58.50;11.90;96095.00;;;;4994521;28;20205;-56
2023/06/07 03:53:59;;;;;;;1.37;1.37;;;12.60;58.20;11.70;96103.00;;;;4993191;28;20679;-56
2023/06/07 03:56:27;;;;;;;1.20;1.20;;;12.40;59.60;11.70;96103.00;;;;4993170;28;20657;-56
2023/06/07 03:58:54;;;;;;;1.63;1.47;;;12.40;60.20;11.80;96095.00;;;;4994981;28;20201;-56
2023/06/07 04:01:25;;;;;;;0.87;0.87;;;12.40;60.20;11.80;96097.00;;;;4994367;28;20222;-56
2023/06/07 04:03:52;;;;;;;0.63;0.63;;;12.40;60.50;11.60;96106.00;;;;4994565;28;20206;-57
2023/06/07 04:06:24;;;;;;;1.30;1.20;;;12.40;60.20;11.60;96086.00;;;;4994352;28;20201;-55
2023/06/07 04:08:52;;;;;;;0.77;0.77;;;12.40;60.00;11.70;96085.00;;;;4993057;28;20226;-56
2023/06/07 04:11:19;;;;;;;1.50;1.40;;;12.40;60.40;11.80;96102.00;;;;4994486;28;20194;-56
2023/06/07 04:13:47;;;;;;;0.93;0.93;;;12.50;60.00;11.90;96095.00;;;;4994137;28;20224;-56
2023/06/07 04:16:15;;;;;;;3.13;1.30;;;12.60;59.80;12.10;96097.00;;;;4994106;28;20191;-56
2023/06/07 04:18:42;;;;;;;1.37;1.27;;;12.60;59.30;12.00;96090.00;;;;4994388;28;20202;-56
2023/06/07 04:21:09;;;;;;;1.27;1.20;;;12.60;58.90;12.00;96103.00;;;;4994080;28;20677;-55
2023/06/07 04:23:36;;;;;;;1.00;1.00;;;12.70;59.20;12.10;96099.00;;;;4993947;28;20203;-57
2023/06/07 04:26:05;;;;;;;0.87;0.87;;;12.70;59.00;12.00;96104.00;;;;4994047;28;20273;-55
2023/06/07 04:28:32;;;;;;;0.90;0.90;;;12.70;58.80;12.00;96094.00;;;;4993953;28;20277;-56
2023/06/07 04:31:01;;;;;;;1.17;1.10;;;12.60;58.70;12.00;96093.00;;;;4994010;28;20220;-56
2023/06/07 04:33:28;;;;;;;1.23;1.23;;;12.70;58.50;12.00;96099.00;;;;4993883;28;20186;-56
2023/06/07 04:35:57;;;;;;;0.93;0.93;;;12.50;58.80;11.90;96094.00;;;;4993939;28;20194;-56
2023/06/07 04:38:25;;;;;;;1.13;1.13;;;12.50;59.30;11.90;96098.00;;;;4993881;28;20224;-56
2023/06/07 04:40:53;;;;;;;1.57;1.47;;;12.60;59.10;12.00;96092.00;;;;4993795;28;20190;-56
2023/06/07 04:43:20;;;;;;;1.30;1.20;;;12.60;58.90;12.00;96096.00;;;;4993807;28;20194;-57
2023/06/07 04:45:53;;;;;;;1.00;1.00;;;12.70;58.60;12.10;96094.00;;;;4993711;28;20249;-57
2023/06/07 04:48:23;;;;;;;1.17;1.17;;;12.80;59.20;12.20;96095.00;;;;4994049;28;20178;-56
2023/06/07 04:50:51;;;;;;;1.40;1.40;;;12.80;59.60;12.20;96100.00;;;;4992492;28;20205;-56
2023/06/07 04:53:19;;;;;;;1.17;1.17;;;12.80;59.90;12.30;96100.00;;;;4997046;28;20736;-55
2023/06/07 04:55:48;;;;;;;1.20;1.20;;;12.90;59.70;12.30;96091.00;;;;4997697;28;20206;-56
2023/06/07 04:58:16;;;;;;;1.33;1.27;;;12.90;60.00;12.40;96078.00;;;;4998319;28;20190;-57
2023/06/07 05:00:45;;;;;;;1.00;1.00;;;13.00;59.50;12.50;96094.00;;;;4997674;28;20217;-56
2023/06/07 05:03:21;;;;;;;1.07;1.07;;;13.20;58.60;12.60;96097.00;;;;4997847;28;20317;-57
2023/06/07 05:05:50;;;;;;;1.53;1.43;;;13.30;58.50;12.70;96088.00;;;;4997498;28;20205;-56
2023/06/07 05:08:17;;;;;;;1.00;1.00;;;13.30;58.90;12.80;96085.00;;;;4997501;28;20198;-56
2023/06/07 05:10:45;;;;;;;1.27;1.27;;;13.30;59.40;12.90;96096.00;;;;4996234;28;20200;-57
2023/06/07 05:13:12;;;;;;;0.93;0.93;;;13.40;58.30;12.80;96098.00;;;;4997430;28;20281;-56
2023/06/07 05:15:39;;;;;;;0.70;0.70;;;13.40;58.30;12.80;96091.00;;;;4997350;28;20210;-57
2023/06/07 05:18:07;;;;;;;0.80;0.80;;;13.30;58.90;12.80;96092.00;;;;4996000;28;20191;-57
2023/06/07 05:20:35;;;;;;;1.43;1.33;;;13.40;58.60;12.90;96093.00;;;;4997300;28;20728;-55
2023/06/07 05:23:04;;;;;;;0.93;0.93;;;13.40;59.30;12.90;96086.00;;;;4997457;28;20305;-55
2023/06/07 05:25:31;;;;;;;3.70;1.47;;;13.50;58.40;12.90;96091.00;;;;4997119;28;20264;-58
2023/06/07 05:27:58;;;;;;;1.07;1.07;;;13.50;59.30;13.00;96095.00;;;;4997204;28;20186;-55
2023/06/07 05:30:25;;;;;;;1.10;1.10;;;13.60;59.30;13.10;96091.00;;;;4997216;28;20201;-56
2023/06/07 05:32:52;;;;;;;1.00;1.00;;;13.70;59.70;13.20;96093.00;;;;4997442;28;20195;-56
2023/06/07 05:35:20;;;;;;;0.87;0.87;;;13.80;59.70;13.30;96084.00;;;;4997040;28;20206;-55
2023/06/07 05:37:48;;;;;;;1.20;1.20;;;13.90;59.80;13.50;96090.00;;;;4997786;28;20194;-56
2023/06/07 05:40:18;;;;;;;1.20;1.20;;;14.00;58.60;13.50;96088.00;;;;4997812;28;20192;-56
2023/06/07 05:42:45;;;;;;;1.20;1.20;;;14.00;59.70;13.60;96092.00;;;;4997085;28;20222;-56
2023/06/07 05:45:13;;;;;;;1.10;1.10;;;14.10;59.60;13.70;96085.00;;;;4996989;28;20266;-56
2023/06/07 05:47:41;;;;;;;1.13;1.13;;;14.20;59.30;13.70;96085.00;;;;4997740;28;20206;-56
2023/06/07 05:50:10;;;;;;;1.13;1.13;;;14.30;59.20;13.80;96087.00;;;;4996928;28;20249;-56
2023/06/07 05:52:39;;;;;;;1.13;1.13;;;14.40;59.20;13.60;96091.00;;;;4996809;28;20229;-57
2023/06/07 05:55:08;;;;;;;0.70;0.70;;;14.30;59.30;13.50;96084.00;;;;4993355;28;20321;-54
2023/06/07 05:57:37;;;;;;;0.97;0.97;;;14.20;59.60;13.80;96081.00;;;;4998157;28;20201;-56
2023/06/07 06:00:10;;;;;;;0.80;0.80;;;14.40;59.60;14.00;96078.00;;;;5002634;28;20198;-56
2023/06/07 06:02:38;;;;;;;1.10;1.10;;;14.50;59.20;14.20;96083.00;;;;5012073;28;20229;-59
2023/06/07 06:05:07;;;;;;;1.10;1.10;;;14.70;58.70;14.30;96080.00;;;;4999514;28;20237;-55
2023/06/07 06:07:35;;;;;;;3.70;1.67;;;14.80;58.10;14.40;96079.00;;;;5004955;28;20200;-55
2023/06/07 06:10:04;;;;;;;0.70;0.70;;;15.00;57.90;14.40;96082.00;;;;5014148;28;20198;-57
2023/06/07 06:12:31;;;;;;;1.03;1.03;;;15.00;57.20;14.30;96089.00;;;;5011308;28;20615;-55
2023/06/07 06:15:00;;;;;;;0.90;0.90;;;14.90;58.00;14.30;96083.00;;;;5014417;28;20704;-56
2023/06/07 06:17:28;;;;;;;1.00;1.00;;;15.00;58.50;14.60;96078.00;;;;5007427;28;20202;-56
2023/06/07 06:19:55;;;;;;;0.67;0.67;;;15.10;58.60;14.70;96094.00;;;;4994278;28;20202;-56
2023/06/07 06:22:22;;;;;;;1.23;1.13;;;15.30;58.70;14.90;96089.00;;;;4994187;28;20398;-55
2023/06/07 06:24:49;;;;;;;0.70;0.70;;;15.40;59.20;14.90;96085.00;;;;4994109;28;20222;-56
2023/06/07 06:27:16;;;;;;;1.07;1.07;;;15.40;59.00;14.90;96085.00;;;;4994221;28;20195;-55
2023/06/07 06:29:44;;;;;;;0.90;0.90;;;15.40;59.30;14.80;96089.00;;;;4992921;28;20249;-56
2023/06/07 06:32:12;;;;;;;1.23;1.23;;;15.50;58.70;15.00;96083.00;;;;5007535;28;20684;-56
2023/06/07 06:34:39;;;;;;;0.80;0.80;;;15.50;59.30;15.10;96082.00;;;;4993644;28;20584;-54
2023/06/07 06:37:06;;;;;;;2.40;1.73;;;15.60;58.80;15.40;96093.00;;;;4994296;28;20198;-55
2023/06/07 06:39:33;;;;;;;0.93;0.93;;;15.80;58.40;15.60;96087.00;;;;4994047;28;20205;-54
2023/06/07 06:42:01;;;;;;;4.63;1.57;;;16.00;56.90;15.70;96094.00;;;;4993257;28;20221;-55
2023/06/07 06:44:28;;;;;;;1.57;1.47;;;16.20;56.20;15.90;96093.00;;;;4993483;28;20229;-55
2023/06/07 06:46:55;;;;;;;1.30;1.30;;;16.30;56.10;16.10;96096.00;;;;4994148;28;20193;-55
2023/06/07 06:49:24;;;;;;;1.63;1.53;;;16.50;55.40;16.00;96087.00;;;;4994049;28;20571;-55
2023/06/07 06:51:51;;;;;;;2.00;1.77;;;16.50;55.20;16.10;96102.00;;;;4993819;28;20285;-55
2023/06/07 06:54:19;;;;;;;2.43;2.10;;;16.60;55.10;16.40;96093.00;;;;5008505;28;20704;-55
2023/06/07 06:56:46;;;;;;;1.60;1.50;;;16.80;54.80;16.60;96096.00;;;;4989980;28;20218;-56
2023/06/07 06:59:13;;;;;;;1.27;1.17;;;17.10;54.50;16.80;96094.00;;;;4993655;28;20199;-56
2023/06/07 07:01:45;;;;;;;1.20;1.20;;;17.20;54.10;16.90;96103.00;;;;4993377;28;20237;-55
2023/06/07 07:04:12;;;;;;;1.60;1.33;;;17.30;53.80;17.10;96091.00;;;;5005019;28;20263;-54
2023/06/07 07:06:41;;;;;;;1.37;1.37;;;17.50;53.90;17.30;96078.00;;;;5013057;28;20204;-55
2023/06/07 07:09:09;;;;;;;0.90;0.90;;;17.60;53.60;17.30;96093.00;;;;5009912;28;20210;-55
2023/06/07 07:11:36;;;;;;;1.40;1.30;;;17.70;53.30;17.50;96098.00;;;;5013005;28;20194;-55
2023/06/07 07:14:03;;;;;;;1.10;1.10;;;17.90;52.00;17.70;96097.00;;;;5012467;28;20224;-54
2023/06/07 07:16:31;;;;;;;0.80;0.80;;;18.00;52.10;17.80;96093.00;;;;5012544;28;20656;-55
2023/06/07 07:18:58;;;;;;;0.93;0.93;;;18.20;51.80;17.90;96100.00;;;;5012817;28;20202;-55
2023/06/07 07:21:27;;;;;;;0.80;0.80;;;18.40;51.10;18.10;96101.00;;;;5012779;28;20194;-55
2023/06/07 07:23:56;;;;;;;0.70;0.70;;;18.60;50.70;18.40;96105.00;;;;5012031;28;20228;-55
2023/06/07 07:26:23;;;;;;;2.00;1.70;;;18.70;50.70;18.50;96107.00;;;;5013025;28;20256;-56
2023/06/07 07:28:52;;;;;;;2.83;1.73;;;18.90;50.10;18.60;96107.00;;;;5012314;28;20221;-55
2023/06/07 07:31:20;;;;;;;0.90;0.90;;;19.00;49.00;18.50;96102.00;;;;5012818;28;20281;-55
2023/06/07 07:33:48;;;;;;;0.77;0.77;;;19.00;48.80;18.50;96103.00;;;;5012119;28;20248;-57
2023/06/07 07:36:17;;;;;;;1.10;1.10;;;19.00;49.00;18.70;96105.00;;;;5012866;28;20209;-55
2023/06/07 07:38:45;;;;;;;0.83;0.83;;;19.10;48.90;18.90;96104.00;;;;5012348;28;20204;-55
2023/06/07 07:41:15;;;;;;;0.63;0.63;;;19.20;47.50;19.00;96103.00;;;;5012429;28;20197;-55
2023/06/07 07:43:42;;;;;;;1.20;1.20;;;19.40;45.30;19.10;96099.00;;;;5011003;28;20222;-56
2023/06/07 07:46:09;;;;;;;0.77;0.77;;;19.40;43.80;19.20;96113.00;;;;4999916;28;20198;-56
2023/06/07 07:48:36;;;;;;;0.93;0.93;;;19.50;43.90;19.20;96110.00;;;;4992732;28;20190;-56
2023/06/07 07:51:04;;;;;;;0.60;0.57;;;19.60;43.20;19.10;96106.00;;;;4992315;28;20726;-54
2023/06/07 07:53:33;;;;;;;0.93;0.93;;;19.60;43.50;19.30;96105.00;;;;4996012;28;20664;-56
2023/06/07 07:56:01;;;;;;;1.37;1.27;;;19.70;44.00;19.40;96106.00;;;;5012443;28;20561;-56
2023/06/07 07:58:29;;;;;;;0.87;0.87;;;19.80;44.50;19.50;96100.00;;;;5012519;28;20198;-55
2023/06/07 08:00:56;;;;;;;0.80;0.80;;;19.90;44.40;19.50;96109.00;;;;5011823;28;20193;-55
2023/06/07 08:03:23;;;;;;;0.70;0.70;;;19.90;42.60;19.50;96101.00;;;;5012308;28;20786;-55
2023/06/07 08:05:50;;;;;;;2.47;1.20;;;20.00;42.80;19.70;96095.00;;;;5010917;28;20202;-55
2023/06/07 08:08:18;;;;;;;0.77;0.77;;;20.10;40.90;19.70;96089.00;;;;5012019;28;20197;-56
2023/06/07 08:10:47;;;;;;;0.70;0.70;;;20.20;40.50;19.90;96097.00;;;;5012014;28;20707;-57
2023/06/07 08:13:14;;;;;;;1.20;1.20;;;20.20;40.00;19.80;96102.00;;;;5011977;28;20201;-56
2023/06/07 08:15:42;;;;;;;1.80;1.30;;;20.20;39.20;20.00;96089.00;;;;5026940;28;20232;-55
2023/06/07 08:18:09;;;;;;;0.77;0.77;;;20.30;39.00;19.90;96096.00;;;;5011882;28;20204;-56
2023/06/07 08:20:37;;;;;;;1.10;1.10;;;20.30;38.90;20.00;96094.00;;;;5012272;28;20201;-54
2023/06/07 08:23:06;;;;;;;0.97;0.97;;;20.40;39.50;20.10;96087.00;;;;4991697;28;20268;-56
2023/06/07 08:25:33;;;;;;;1.20;1.20;;;20.50;38.00;20.20;96091.00;;;;4991954;28;20252;-55
2023/06/07 08:28:00;;;;;;;0.87;0.87;;;20.60;37.70;20.30;96091.00;;;;4991380;28;20197;-55
2023/06/07 08:30:27;;;;;;;1.07;1.07;;;20.70;37.90;20.40;96085.00;;;;4992075;28;20281;-55
2023/06/07 08:32:56;;;;;;;0.87;0.87;;;20.70;37.20;20.40;96091.00;;;;4992150;28;20198;-55
2023/06/07 08:35:23;;;;;;;1.00;1.00;;;20.80;37.20;20.50;96095.00;;;;4991970;28;20218;-55
2023/06/07 08:37:50;;;;;;;0.68;0.68;;;20.90;36.80;20.50;96090.00;;;;4992010;28;20273;-55
2023/06/07 08:40:20;;;;;;;1.43;1.33;;;20.90;37.80;20.70;96102.00;;;;4991942;28;20190;-56
2023/06/07 08:42:47;;;;;;;2.03;0.97;;;21.00;36.90;20.80;96100.00;;;;4992024;28;20210;-55
2023/06/07 08:45:16;;;;;;;0.75;0.75;;;21.10;36.80;20.80;96101.00;;;;4991975;28;20226;-55
2023/06/07 08:47:45;;;;;;;1.37;1.30;;;21.10;36.60;20.90;96099.00;;;;4992163;28;20208;-55
2023/06/07 08:50:16;;;;;;;0.85;0.85;;;21.20;36.00;21.10;96105.00;;;;4992007;28;20197;-55
2023/06/07 08:52:51;;;;;;;3.47;1.40;;;21.40;35.10;21.20;96099.00;;;;4992091;28;20190;-55
2023/06/07 08:55:18;;;;;;;0.80;0.80;;;21.40;36.10;21.30;96098.00;;;;4987727;28;20221;-55
2023/06/07 08:57:50;;;;;;;2.03;1.60;;;21.70;35.70;21.00;96109.00;;;;4991817;28;20194;-55
2023/06/07 09:00:22;;;;;;;0.80;0.80;;;21.50;35.10;21.10;96103.00;;;;4991985;28;20210;-55
2023/06/07 09:02:52;;;;;;;1.10;1.10;;;21.40;36.00;21.10;96102.00;;;;4989558;28;20764;-55
2023/06/07 09:05:22;;;;;;;0.93;0.93;;;21.50;36.50;21.40;96096.00;;;;4991357;28;20748;-55
2023/06/07 09:07:49;;;;;;;1.00;1.00;;;21.70;35.70;21.40;96096.00;;;;4992102;28;20194;-54
2023/06/07 09:10:17;;;;;;;1.17;1.17;;;21.70;35.90;21.50;96117.00;;;;4991392;28;20451;-55
2023/06/07 09:12:46;;;;;;;1.85;1.50;;;21.80;36.80;21.30;96110.00;;;;4992091;28;20210;-55
2023/06/07 09:15:19;;;;;;;0.95;0.95;;;21.80;36.70;21.20;96100.00;;;;4991266;28;20268;-55
2023/06/07 09:17:58;;;;;;;0.80;0.80;;;21.70;36.30;21.40;96097.00;;;;4992121;28;20186;-55
2023/06/07 09:20:28;;;;;;;1.77;1.23;;;21.80;37.60;21.50;96100.00;;;;4991311;28;20204;-55
2023/06/07 09:23:04;;;;;;;0.70;0.70;;;;;21.80;96097.00;;;;4992335;28;20214;-55
2023/06/07 09:25:31;;;;;;;1.00;1.00;;;22.10;35.20;21.80;96097.00;;;;4990370;28;20229;-55
2023/06/07 09:28:00;;;;;;;1.33;1.25;;;22.10;34.90;21.60;96094.00;;;;4991561;28;20252;-56
2023/06/07 09:30:27;;;;;;;0.82;0.82;;;22.10;34.50;22.00;96096.00;;;;4991550;28;20213;-55
2023/06/07 09:32:54;;;;;;;0.90;0.90;;;22.20;34.00;22.30;96084.00;;;;4991524;28;20578;-56
2023/06/07 09:35:23;;;;;;;0.73;0.73;;;22.60;33.30;22.20;96084.00;;;;4991239;28;20214;-56
2023/06/07 09:37:54;;;;;;;25.02;1.35;;;22.50;32.70;22.30;96089.00;;;;5003800;28;20221;-56
2023/06/07 09:40:23;;;;;;;0.93;0.93;;;22.60;33.50;22.60;96092.00;;;;4994837;28;20202;-56
2023/06/07 09:42:58;;;;;;;1.02;1.00;;;22.80;34.10;22.60;96096.00;;;;4994741;28;20312;-56
2023/06/07 09:45:27;;;;;;;0.90;0.90;;;22.90;32.90;22.90;96092.00;;;;4994292;28;20224;-56
2023/06/07 09:48:03;;;;;;;1.08;1.02;;;23.20;32.40;22.90;96099.00;;;;4995367;28;20198;-56
2023/06/07 09:50:32;;;;;;;0.95;0.95;;;23.20;32.00;22.70;96103.00;;;;4991328;28;20252;-56
2023/06/07 09:53:01;;;;;;;1.20;1.10;;;23.10;31.60;22.80;96095.00;;;;4995002;28;20194;-55
2023/06/07 09:55:30;;;;;;;5.10;0.80;;;23.20;32.50;23.00;96103.00;;;;4993421;28;20685;-55
2023/06/07 09:57:57;;;;;;;1.00;1.00;;;23.30;31.10;23.00;96102.00;;;;4993621;28;20615;-55
2023/06/07 10:00:27;;;;;;;0.70;0.70;;;23.30;31.60;22.70;96088.00;;;;4994826;28;20194;-56
2023/06/07 10:03:06;;;;;;;0.88;0.88;;;23.20;30.00;22.10;96085.00;;;;4995038;28;20300;-55
2023/06/07 10:05:34;;;;;;;0.90;0.90;;;22.70;31.90;22.80;96089.00;;;;4992660;28;20312;-55
2023/06/07 10:08:04;;;;;;;1.15;1.15;;;23.10;33.10;23.10;96076.00;;;;4995111;28;20194;-55
2023/06/07 10:10:34;;;;;;;0.77;0.77;;;23.30;31.80;23.60;96090.00;;;;5009166;28;20234;-56
2023/06/07 10:13:05;;;;;;;0.77;0.77;;;;;23.80;96080.00;;;;4994972;28;20233;-55
2023/06/07 10:15:35;;;;;;;0.98;0.90;;;;;24.00;96079.00;;;;4994054;28;20579;-57
2023/06/07 10:18:13;;;;;;;0.50;0.50;;;;;24.20;96080.00;;;;4989357;28;20209;-54
2023/06/07 10:20:45;;;;;;;0.73;0.73;;;;;24.50;96073.00;;;;4992662;28;20206;-55
2023/06/07 10:23:18;;;;;;;0.80;0.80;;;;;24.70;96074.00;;;;4994701;28;20684;-56
2023/06/07 10:25:53;;;;;;;0.70;0.70;;;;;24.70;96075.00;;;;4993653;28;20230;-57
2023/06/07 10:28:28;;;;;;;0.65;0.65;;;;;24.70;96087.00;;;;4994538;28;20193;-55
2023/06/07 10:31:05;;;;;;;0.73;0.73;;;25.10;28.50;24.30;96082.00;;;;4993910;28;20198;-57
2023/06/07 10:33:34;;;;;;;0.90;0.90;;;24.80;28.50;23.90;96069.00;;;;4991366;28;20265;-56
2023/06/07 10:36:01;;;;;;;0.90;0.90;;;24.50;28.60;24.10;96069.00;;;;4993721;28;20203;-55
2023/06/07 10:38:33;;;;;;;1.15;1.10;;;24.40;29.50;24.20;96062.00;;;;4994464;28;20201;-58
2023/06/07 10:41:04;;;;;;;0.90;0.90;;;24.40;29.00;24.20;96064.00;;;;4993586;28;20191;-57
2023/06/07 10:43:34;;;;;;;1.00;1.00;;;24.50;28.70;24.50;96057.00;;;;4993886;28;20217;-56
2023/06/07 10:46:20;;;;;;;0.68;0.68;;;24.70;29.10;24.90;96066.00;;;;4994068;28;21371;-56
2023/06/07 10:48:47;;;;;;;0.60;0.60;;;25.10;28.80;24.80;96067.00;;;;4991973;28;20693;-57
2023/06/07 10:51:15;;;;;;;0.80;0.80;;;25.10;26.90;24.50;96080.00;;;;4992828;28;20281;-57
2023/06/07 10:53:58;;;;;;;0.90;0.90;;;24.90;27.30;24.40;96072.00;;;;4993879;28;20198;-56
2023/06/07 10:56:30;;;;;;;1.02;1.02;;;;;24.10;96055.00;;;;4994024;28;20186;-56
2023/06/07 10:59:19;;;;;;;1.00;1.00;;;24.60;27.90;24.60;96072.00;;;;4992743;28;20693;-56
2023/06/07 11:01:48;;;;;;;1.77;1.20;;;24.80;27.80;24.30;96073.00;;;;4990911;28;20202;-56
2023/06/07 11:04:53;;;;;;;0.70;0.70;;;24.70;27.70;24.70;96068.00;;;;4993925;28;20232;-56